Airfield :







YOU CAN JOIN US ON...

 
LOGIN :

Register | Disclaimer

   EN    FR    IT 

 









Legend :    VFR   Marginal VFR   IFR   Intensive IFR   Very Intensive IFR
Visi :
Ceiling :
>= 8 km
>= 3000ft
5 to 8 km
1000 to 3000 ft
1500m to 5 km
500 to 1000 ft
800 to 1500m
200 to 500 ft
< 800m
< 200 ft
Symbols :   Thunderstorms  Fog  Heavy snow  Heavy precipitations  Wind > 20 kt






- Airport Elevation : 192 ft
- IATA code : BGR


KBGR - Bangor International

CURRENT METAR :
  • 200053Z 29009KT 10SM CLR M06/M15 A3016 RMK AO2 SLP215 T10561150

EXPIRED METARs :
  • 192353Z 30009G21KT 10SM CLR M05/M16 A3014 RMK AO2 PK WND 30026/2313 SLP209 4/007 60000 T10501156 10011 21050 53044
  • 192253Z 30010G18KT 10SM FEW050 M04/M15 A3010 RMK AO2 PK WND 31026/2200 SLP196 T10391150

TAF KBGR
Valid from the 20 at 00:00 until the 21 at 00:00 UTC


192324Z 2000/2024 29011G20KT P6SM SKC
FM200900 30008KT P6SM FEW100
FM201400 30009G18KT P6SM FEW050



MET'MAP, your aeronautical weather chart ! - Copyright ORBIFLY December 2007 - Disclaimer

ORBIFLY MET'MAP TEAM :

Programming & Development : Alexandra Zaïnal
Concept & original design : Baudouin d'Aumeries
Assistance for programming : Marc-Olivier Méhu
Technical & hardware support : Manuel Goepfert

Contact : metmap@orbifly.com




SOURCES & CREDITS :

   NOAA